Pagrindinis puslapis
METAR-TAF:

METAR-TAF

Oro uostai :

Diuseldorfas, Vokietija

platuma: 51-18N, ilguma: 006-46E, Aukštis: 45 m

Dabartinis oras

Ataskaita buvo paskelbta 22 minutes, ne 09:50 UTC
Vėjas 5 kt iš Pietų, svyruoja nuo Rytų/Pietryčių ir Pietų/Pietvakarių
Temperatūra 17°C
Drėgmė 42%
Slėgis 1029 hPa
Matomumas 10 km arba daugiau
nėra debesų žemiau 1500 m ir nėra kamuolinių lietaus debesų

METAR: EDDL 200950Z 17005KT 110V200 CAVOK 17/04 Q1029 NOSIG

Laikas: 12:12 (10:12 UTC)

Prognozė

Ataskaita buvo paskelbta 5 valandos ir 12 minutes, ne 05:00 UTC
Prognozė galioja nuo 20 metu 06 UTC su 21 metu 12 UTC
Vėjas 3 kt nuo kintamojo kryptimis
Matomumas 10 km arba daugiau
nėra debesų žemiau 1500 m ir nėra kamuolinių lietaus debesų
Tapsmas
nuo 20 metu 09 UTC su 20 metu 11 UTC
Vėjas 6 kt iš Rytų/Šiaurės Rytų
Tapsmas
nuo 21 metu 07 UTC su 21 metu 09 UTC
Vėjas 10 kt iš Pietryčių

TAF: EDDL 200500Z 2006/2112 VRB03KT CAVOK BECMG 2009/2011 07006KT BECMG 2107/2109 13010KT

Orai ataskaitas ir orų prognozės (METAR, TAF).

turimą stotys yra geltonos ir raudonos taškus žemėlapyje.

Perkelti pele per norėdami pamatyti stoties vardą.

Tada spustelėkite, norėdami matyti oro stebėjimo ir prognozės.

Norėdami pakeisti žemėlapį: spustelėkite ant žalios mygtukų su juodo kryžiaus žemyn,; žalią mygtuką su brūkšneliu, jei norite nutolinti; arba žalių rodyklių gretimoms žemėlapius.


METAR-TAF: